Time;durP1;ratioP1;P1;durP2;ratioP2;P2;SDS_P1;SDS_P2;PMS_P1;PMS_P2;Temp;Humidity;BMP_temperature;BMP_pressure;BME280_temperature;BME280_humidity;BME280_pressure;Samples;Min_cycle;Max_cycle;Signal;HPM_P1;HPM_P2
2021/10/31 00:00:25;;;;;;;24.42;15.25;;;11.80;96.30;;;;;;5033468;28;20025;-74
2021/10/31 00:02:51;;;;;;;29.08;16.65;;;;;;;;;;5032627;28;20029;-74
2021/10/31 00:05:17;;;;;;;27.73;17.30;;;11.80;96.10;;;;;;5015623;28;20034;-74
2021/10/31 00:07:43;;;;;;;28.17;15.63;;;11.80;96.40;;;;;;5033133;28;20026;-74
2021/10/31 00:10:10;;;;;;;23.67;13.98;;;11.70;96.40;;;;;;5033317;28;20032;-72
2021/10/31 00:12:35;;;;;;;28.15;16.55;;;11.70;96.40;;;;;;5033131;28;20111;-73
2021/10/31 00:15:02;;;;;;;27.65;15.90;;;11.70;96.30;;;;;;5015447;28;20160;-73
2021/10/31 00:17:28;;;;;;;23.10;15.50;;;11.70;96.50;;;;;;5054398;28;20081;-73
2021/10/31 00:19:54;;;;;;;20.05;14.73;;;11.70;96.40;;;;;;5019741;28;20041;-74
2021/10/31 00:22:20;;;;;;;18.67;12.85;;;11.70;96.40;;;;;;5052747;28;20514;-73
2021/10/31 00:24:45;;;;;;;22.92;13.55;;;11.60;96.30;;;;;;5032621;28;20026;-73
2021/10/31 00:27:11;;;;;;;25.63;16.23;;;11.70;96.40;;;;;;5032685;28;20025;-73
2021/10/31 00:29:36;;;;;;;22.02;14.27;;;11.70;96.30;;;;;;5032686;28;20029;-74
2021/10/31 00:32:03;;;;;;;25.83;15.65;;;11.60;96.30;;;;;;5032548;28;20026;-73
2021/10/31 00:34:28;;;;;;;20.25;13.23;;;11.60;96.30;;;;;;5032630;28;20021;-73
2021/10/31 00:36:54;;;;;;;20.13;14.10;;;11.60;96.30;;;;;;5032947;28;20091;-74
2021/10/31 00:39:19;;;;;;;24.17;15.02;;;11.60;96.30;;;;;;5032801;28;20504;-73
2021/10/31 00:41:45;;;;;;;27.73;15.40;;;11.50;96.20;;;;;;5032630;28;20025;-72
2021/10/31 00:44:11;;;;;;;25.92;15.52;;;11.50;96.10;;;;;;5032510;28;20066;-73
2021/10/31 00:46:36;;;;;;;21.17;13.52;;;11.50;96.20;;;;;;5014501;28;20103;-74
2021/10/31 00:49:02;;;;;;;24.55;15.07;;;11.50;96.60;;;;;;5014795;28;20024;-73
2021/10/31 00:51:28;;;;;;;20.42;12.85;;;11.50;96.30;;;;;;5032564;28;20029;-73
2021/10/31 00:53:56;;;;;;;20.45;13.82;;;11.50;96.30;;;;;;5032240;28;20026;-73
2021/10/31 00:56:23;;;;;;;24.23;14.55;;;11.50;96.30;;;;;;5032521;28;20103;-73
2021/10/31 00:58:50;;;;;;;25.70;14.88;;;11.40;96.30;;;;;;5032026;28;20037;-74
2021/10/31 01:01:15;;;;;;;23.95;16.35;;;11.40;96.40;;;;;;5032341;28;20112;-74
2021/10/31 01:03:41;;;;;;;22.13;13.10;;;11.40;96.40;;;;;;5032672;28;20516;-74
2021/10/31 01:06:36;;;;;;;22.27;14.48;;;11.40;96.30;;;;;;5015835;28;20532;-74
2021/10/31 01:09:39;;;;;;;27.23;16.20;;;11.40;96.40;;;;;;5014911;28;20029;-74
2021/10/31 01:12:32;;;;;;;30.17;16.25;;;11.40;96.40;;;;;;5032312;28;20021;-74
2021/10/31 01:15:36;;;;;;;26.45;15.13;;;11.30;96.40;;;;;;5032024;28;20091;-74
2021/10/31 01:18:23;;;;;;;26.33;15.70;;;11.30;96.50;;;;;;5032228;28;20530;-74
2021/10/31 01:21:24;;;;;;;25.27;16.10;;;11.40;96.50;;;;;;5032038;28;20021;-74
2021/10/31 01:24:09;;;;;;;29.98;15.80;;;11.40;96.60;;;;;;4951247;29;20110;-75
2021/10/31 01:27:09;;;;;;;27.90;15.80;;;11.40;96.60;;;;;;5025280;28;20042;-73
2021/10/31 01:30:00;;;;;;;35.42;15.27;;;11.40;96.50;;;;;;5006138;28;20477;-73
2021/10/31 01:32:41;;;;;;;26.25;15.40;;;11.40;96.60;;;;;;5032732;28;20025;-73
2021/10/31 01:35:19;;;;;;;27.30;15.20;;;11.40;96.90;;;;;;5032265;28;20028;-73
2021/10/31 01:38:22;;;;;;;26.58;15.00;;;11.40;96.60;;;;;;5032251;28;20036;-73
2021/10/31 01:41:09;;;;;;;30.23;14.30;;;11.40;96.60;;;;;;5031744;28;20049;-73
2021/10/31 01:43:53;;;;;;;22.38;13.48;;;11.30;96.60;;;;;;5014301;28;20442;-73
2021/10/31 01:46:40;;;;;;;29.63;16.65;;;11.30;96.60;;;;;;5035896;28;20036;-74
2021/10/31 01:49:40;;;;;;;25.65;15.00;;;11.30;96.60;;;;;;5018221;28;20022;-74
2021/10/31 01:52:20;;;;;;;21.92;12.57;;;11.30;96.60;;;;;;5036065;28;20446;-73
2021/10/31 01:55:20;;;;;;;26.52;14.45;;;11.30;96.60;;;;;;5019392;28;20048;-73
2021/10/31 01:57:55;;;;;;;29.38;14.95;;;11.30;96.70;;;;;;5025407;28;20045;-73
2021/10/31 02:00:21;;;;;;;26.48;15.85;;;11.20;96.60;;;;;;5036563;28;20029;-73
2021/10/31 02:02:47;;;;;;;21.35;12.32;;;11.20;96.60;;;;;;5035694;28;20052;-73
2021/10/31 02:05:17;;;;;;;24.48;14.48;;;11.20;96.70;;;;;;5022450;28;20044;-73
2021/10/31 02:07:48;;;;;;;29.25;15.73;;;11.20;97.00;;;;;;5050825;28;20030;-73
2021/10/31 02:10:15;;;;;;;26.35;15.90;;;11.20;96.70;;;;;;5047464;28;20041;-73
2021/10/31 02:12:44;;;;;;;26.02;14.20;;;11.10;96.70;;;;;;5044952;28;20030;-73
2021/10/31 02:15:18;;;;;;;27.83;15.43;;;11.10;96.70;;;;;;5036809;28;20025;-73
2021/10/31 02:17:49;;;;;;;30.63;17.52;;;11.10;96.70;;;;;;5034891;28;20091;-74
2021/10/31 02:20:15;;;;;;;28.38;15.90;;;11.10;96.70;;;;;;5017289;28;20025;-73
2021/10/31 02:22:44;;;;;;;27.95;15.70;;;11.10;96.70;;;;;;5034937;28;20112;-73
2021/10/31 02:25:10;;;;;;;25.27;14.05;;;11.00;96.70;;;;;;5017196;28;20041;-73
2021/10/31 02:27:42;;;;;;;28.65;14.63;;;11.10;96.70;;;;;;5034639;28;20029;-74
2021/10/31 02:30:08;;;;;;;25.52;13.68;;;11.00;96.60;;;;;;5017174;28;20025;-74
2021/10/31 02:32:34;;;;;;;26.88;14.32;;;11.00;96.70;;;;;;5034927;28;20466;-74
2021/10/31 02:35:00;;;;;;;24.15;13.63;;;11.00;96.70;;;;;;5034748;28;20072;-73
2021/10/31 02:37:27;;;;;;;28.45;13.18;;;11.00;96.70;;;;;;5035273;28;20021;-73
2021/10/31 02:39:54;;;;;;;27.92;15.02;;;11.00;96.90;;;;;;5017252;28;20017;-73
2021/10/31 02:42:20;;;;;;;28.27;14.70;;;11.00;96.80;;;;;;5034820;28;20466;-73
2021/10/31 02:44:46;;;;;;;19.23;13.60;;;11.00;96.80;;;;;;5034319;28;20060;-73
2021/10/31 02:47:21;;;;;;;30.02;15.38;;;11.00;96.80;;;;;;5034626;28;20037;-74
2021/10/31 02:49:46;;;;;;;23.50;13.85;;;11.00;96.80;;;;;;5016711;28;20496;-73
2021/10/31 02:52:36;;;;;;;25.33;13.88;;;11.00;96.70;;;;;;5016910;28;20057;-73
2021/10/31 02:55:22;;;;;;;29.35;15.82;;;11.00;96.70;;;;;;5034199;28;20026;-73
2021/10/31 02:57:59;;;;;;;25.52;14.40;;;11.00;96.80;;;;;;5034260;28;20029;-74
2021/10/31 03:00:28;;;;;;;27.88;14.73;;;11.00;96.70;;;;;;5016696;28;20545;-74
2021/10/31 03:02:53;;;;;;;21.63;13.25;;;10.90;96.70;;;;;;5034704;28;20030;-74
2021/10/31 03:05:19;;;;;;;20.80;12.55;;;11.00;96.70;;;;;;5036912;28;20386;-73
2021/10/31 03:07:46;;;;;;;20.35;12.63;;;10.90;96.70;;;;;;5017944;28;20051;-73
2021/10/31 03:10:16;;;;;;;21.67;13.15;;;10.90;96.60;;;;;;5034825;28;20033;-73
2021/10/31 03:12:42;;;;;;;24.35;13.77;;;10.90;96.60;;;;;;5033839;28;20378;-73
2021/10/31 03:15:08;;;;;;;26.40;13.93;;;10.90;96.60;;;;;;5034459;28;20028;-73
2021/10/31 03:17:34;;;;;;;27.23;13.48;;;10.90;96.70;;;;;;5033953;28;20112;-72
2021/10/31 03:19:59;;;;;;;22.02;13.02;;;10.90;96.60;;;;;;5034026;28;20625;-73
2021/10/31 03:22:25;;;;;;;21.83;13.27;;;10.90;96.60;;;;;;5033848;28;20486;-73
2021/10/31 03:24:50;;;;;;;21.73;12.88;;;10.90;96.60;;;;;;5016016;28;20029;-73
2021/10/31 03:27:16;;;;;;;24.73;13.32;;;10.90;96.60;;;;;;5016081;28;20481;-73
2021/10/31 03:29:42;;;;;;;22.85;12.48;;;10.90;96.60;;;;;;5015973;28;20025;-73
2021/10/31 03:32:07;;;;;;;16.48;9.07;;;11.00;96.60;;;;;;5016152;28;20128;-73
2021/10/31 03:34:33;;;;;;;23.38;14.15;;;10.90;96.60;;;;;;5034173;28;20025;-73
2021/10/31 03:36:58;;;;;;;20.67;12.80;;;10.90;96.60;;;;;;5033363;28;20554;-74
2021/10/31 03:39:24;;;;;;;21.65;12.63;;;11.00;96.60;;;;;;5033887;28;20025;-74
2021/10/31 03:41:50;;;;;;;26.48;12.73;;;11.00;96.60;;;;;;5033926;28;20388;-74
2021/10/31 03:44:18;;;;;;;22.08;12.40;;;11.00;96.60;;;;;;5016101;28;20025;-74
2021/10/31 03:46:44;;;;;;;19.08;12.23;;;11.00;96.60;;;;;;5033547;28;20040;-73
2021/10/31 03:49:10;;;;;;;23.23;13.85;;;11.00;96.60;;;;;;5015920;28;20055;-73
2021/10/31 03:51:36;;;;;;;21.05;12.95;;;11.00;96.50;;;;;;5016132;28;20422;-73
2021/10/31 03:54:02;;;;;;;20.92;12.63;;;11.00;96.50;;;;;;5034376;28;20029;-73
2021/10/31 03:56:27;;;;;;;19.80;9.95;;;11.00;96.50;;;;;;5034175;28;20036;-73
2021/10/31 03:58:53;;;;;;;18.02;12.07;;;11.00;96.40;;;;;;5038075;28;20033;-72
2021/10/31 04:01:19;;;;;;;18.70;10.45;;;11.00;96.40;;;;;;5025938;28;20029;-72
2021/10/31 04:03:44;;;;;;;25.13;12.50;;;11.00;96.40;;;;;;5042435;28;20094;-72
2021/10/31 04:06:12;;;;;;;24.13;13.55;;;11.00;96.40;;;;;;5041934;28;20099;-72
2021/10/31 04:08:40;;;;;;;22.35;12.10;;;11.00;96.40;;;;;;5033896;28;20470;-72
2021/10/31 04:11:07;;;;;;;19.30;11.65;;;11.00;96.40;;;;;;5033288;28;20021;-73
2021/10/31 04:13:33;;;;;;;22.67;12.23;;;11.00;96.40;;;;;;5032925;28;20422;-71
2021/10/31 04:15:59;;;;;;;19.77;13.10;;;11.00;96.40;;;;;;5033065;28;20025;-72
2021/10/31 04:18:24;;;;;;;19.98;12.63;;;11.00;96.40;;;;;;5014545;28;20104;-73
2021/10/31 04:20:50;;;;;;;21.98;12.45;;;11.00;96.40;;;;;;5033163;28;20031;-72
2021/10/31 04:23:16;;;;;;;18.70;11.52;;;11.00;96.30;;;;;;5033585;28;20088;-72
2021/10/31 04:25:41;;;;;;;21.23;13.20;;;11.00;96.20;;;;;;5032790;28;20053;-73
2021/10/31 04:28:07;;;;;;;16.20;10.20;;;11.00;96.30;;;;;;5032454;28;20108;-72
2021/10/31 04:30:33;;;;;;;19.83;12.50;;;10.90;96.20;;;;;;5015176;28;20551;-73
2021/10/31 04:32:58;;;;;;;23.73;13.15;;;10.90;96.20;;;;;;5032427;28;20064;-73
2021/10/31 04:35:24;;;;;;;24.50;13.65;;;10.90;96.20;;;;;;5033056;28;20036;-72
2021/10/31 04:37:51;;;;;;;18.95;11.88;;;10.90;96.20;;;;;;5034042;28;20105;-73
2021/10/31 04:40:21;;;;;;;21.20;12.73;;;10.90;96.20;;;;;;5016431;28;20049;-75
2021/10/31 04:42:47;;;;;;;21.67;12.63;;;10.90;96.20;;;;;;5032963;28;20060;-73
2021/10/31 04:45:12;;;;;;;17.20;11.18;;;10.90;96.20;;;;;;5032625;28;20065;-73
2021/10/31 04:47:38;;;;;;;19.40;12.27;;;10.80;96.20;;;;;;5014852;28;20517;-73
2021/10/31 04:50:05;;;;;;;22.67;13.80;;;10.80;96.20;;;;;;5014539;28;20029;-72
2021/10/31 04:52:32;;;;;;;23.42;12.90;;;10.80;96.20;;;;;;5024396;28;20026;-73
2021/10/31 04:54:57;;;;;;;21.00;12.65;;;10.70;96.20;;;;;;5032256;28;20037;-74
2021/10/31 04:57:23;;;;;;;20.77;12.50;;;10.80;96.30;;;;;;5032217;28;20393;-72
2021/10/31 04:59:49;;;;;;;20.58;12.48;;;10.70;96.20;;;;;;5032750;28;20486;-73
2021/10/31 05:02:14;;;;;;;21.40;12.65;;;10.70;96.20;;;;;;5033106;28;20017;-73
2021/10/31 05:04:40;;;;;;;23.40;12.05;;;10.70;96.20;;;;;;5033469;28;20369;-72
2021/10/31 05:07:06;;;;;;;20.70;12.18;;;10.70;96.20;;;;;;5032298;28;20468;-72
2021/10/31 05:09:31;;;;;;;23.73;12.50;;;10.70;96.20;;;;;;5032399;28;20100;-72
2021/10/31 05:11:57;;;;;;;15.57;10.32;;;10.70;96.20;;;;;;5015066;28;20064;-73
2021/10/31 05:14:22;;;;;;;21.52;13.18;;;10.60;96.10;;;;;;5015407;28;20025;-72
2021/10/31 05:16:48;;;;;;;21.27;12.32;;;10.60;96.10;;;;;;5032284;28;20033;-73
2021/10/31 05:19:14;;;;;;;16.73;11.50;;;10.60;96.10;;;;;;5016604;28;20030;-73
2021/10/31 05:21:40;;;;;;;17.30;11.73;;;10.60;96.10;;;;;;5036126;28;20478;-72
2021/10/31 05:24:05;;;;;;;22.23;11.55;;;10.50;96.10;;;;;;5036128;28;20458;-72
2021/10/31 05:26:31;;;;;;;18.10;12.77;;;10.50;96.10;;;;;;5035943;28;20032;-71
2021/10/31 05:28:56;;;;;;;15.85;10.70;;;10.50;96.00;;;;;;5018465;28;20358;-72
2021/10/31 05:31:23;;;;;;;28.30;15.63;;;10.50;95.90;;;;;;5036416;28;20029;-72
2021/10/31 05:33:55;;;;;;;25.40;13.63;;;10.50;95.90;;;;;;5035872;28;20375;-72
2021/10/31 05:36:20;;;;;;;26.55;15.57;;;10.40;95.90;;;;;;5018135;28;20397;-74
2021/10/31 05:38:46;;;;;;;18.77;11.70;;;10.40;95.90;;;;;;5036160;28;20021;-72
2021/10/31 05:41:12;;;;;;;26.75;14.57;;;10.40;95.90;;;;;;5036807;28;20025;-74
2021/10/31 05:43:37;;;;;;;20.27;13.27;;;10.40;96.00;;;;;;5041672;28;20032;-72
2021/10/31 05:46:03;;;;;;;24.10;15.02;;;10.40;95.90;;;;;;5050331;28;20033;-73
2021/10/31 05:48:30;;;;;;;22.17;13.93;;;10.40;95.90;;;;;;5047651;28;20069;-73
2021/10/31 05:50:57;;;;;;;21.33;12.20;;;10.40;95.90;;;;;;5028666;28;20378;-74
2021/10/31 05:53:23;;;;;;;18.50;12.38;;;10.30;95.80;;;;;;5036405;28;20581;-72
2021/10/31 05:55:49;;;;;;;20.23;12.98;;;10.30;95.80;;;;;;5019723;28;20021;-73
2021/10/31 05:58:14;;;;;;;18.23;11.07;;;10.20;95.80;;;;;;5021284;28;20124;-72
2021/10/31 06:00:40;;;;;;;15.63;10.50;;;10.20;95.80;;;;;;5038673;28;20030;-71
2021/10/31 06:03:06;;;;;;;15.20;10.43;;;10.20;95.80;;;;;;5035296;28;20030;-72
2021/10/31 06:05:31;;;;;;;17.20;11.35;;;10.20;95.80;;;;;;5035519;28;20099;-74
2021/10/31 06:07:57;;;;;;;12.80;8.65;;;10.20;95.90;;;;;;5035176;28;20112;-72
2021/10/31 06:10:23;;;;;;;22.42;14.93;;;10.20;95.90;;;;;;5035642;28;20072;-73
2021/10/31 06:12:49;;;;;;;21.23;13.63;;;10.20;96.00;;;;;;5035224;28;20030;-73
2021/10/31 06:15:17;;;;;;;23.55;15.48;;;10.20;96.30;;;;;;5017293;28;20022;-73
2021/10/31 06:17:43;;;;;;;19.80;13.13;;;10.20;96.10;;;;;;5017552;28;20025;-74
2021/10/31 06:20:10;;;;;;;21.25;13.82;;;10.20;96.10;;;;;;5034756;28;20032;-73
2021/10/31 06:22:37;;;;;;;22.15;14.52;;;10.30;96.10;;;;;;5035165;28;20117;-73
2021/10/31 06:25:03;;;;;;;24.13;14.93;;;10.20;96.20;;;;;;5034827;28;20116;-73
2021/10/31 06:27:29;;;;;;;27.15;16.33;;;10.30;96.20;;;;;;5034940;28;20446;-73
2021/10/31 06:29:54;;;;;;;27.95;17.65;;;10.30;96.20;;;;;;5034382;28;20057;-73
2021/10/31 06:32:20;;;;;;;22.55;13.98;;;10.20;96.20;;;;;;5034693;28;20025;-72
2021/10/31 06:34:46;;;;;;;16.67;11.00;;;10.30;96.60;;;;;;5017068;28;20462;-73
2021/10/31 06:37:11;;;;;;;26.85;16.55;;;10.30;96.30;;;;;;5034329;28;20470;-73
2021/10/31 06:39:37;;;;;;;15.20;10.48;;;10.40;96.40;;;;;;5034884;28;20021;-74
2021/10/31 06:42:03;;;;;;;24.55;15.35;;;10.30;96.30;;;;;;5034471;28;20025;-72
2021/10/31 06:44:28;;;;;;;25.52;16.35;;;10.40;96.30;;;;;;5034433;28;20064;-72
2021/10/31 06:46:54;;;;;;;23.63;15.80;;;10.40;96.30;;;;;;5034746;28;20040;-72
2021/10/31 06:49:20;;;;;;;27.50;17.95;;;10.40;96.30;;;;;;5017124;28;20474;-71
2021/10/31 06:51:45;;;;;;;23.98;16.13;;;10.40;96.30;;;;;;5016985;28;20076;-72
2021/10/31 06:54:11;;;;;;;22.00;15.10;;;10.40;96.40;;;;;;5034528;28;20025;-73
2021/10/31 06:56:37;;;;;;;19.30;12.70;;;10.40;96.40;;;;;;5016972;28;20029;-73
2021/10/31 06:59:03;;;;;;;28.60;18.70;;;10.50;96.40;;;;;;5034437;28;20034;-73
2021/10/31 07:01:29;;;;;;;16.33;10.25;;;10.50;96.40;;;;;;5034808;28;20072;-73
2021/10/31 07:03:54;;;;;;;24.15;15.13;;;10.50;96.40;;;;;;5034331;28;20033;-72
2021/10/31 07:06:20;;;;;;;16.88;10.68;;;10.40;96.40;;;;;;5034244;28;20022;-72
2021/10/31 07:08:46;;;;;;;20.00;12.60;;;10.50;96.40;;;;;;5034638;28;20030;-73
2021/10/31 07:11:11;;;;;;;19.13;12.98;;;10.50;96.40;;;;;;5033889;28;20184;-72
2021/10/31 07:13:38;;;;;;;22.73;16.77;;;10.50;96.40;;;;;;5034696;28;20520;-72
2021/10/31 07:16:04;;;;;;;22.08;14.35;;;10.50;96.40;;;;;;5034877;28;20100;-72
2021/10/31 07:18:30;;;;;;;26.13;16.90;;;10.60;96.40;;;;;;5035476;28;20124;-73
2021/10/31 07:20:56;;;;;;;24.02;16.83;;;10.60;96.40;;;;;;5017560;28;20389;-72
2021/10/31 07:23:21;;;;;;;22.02;15.32;;;10.70;96.40;;;;;;5035061;28;20025;-73
2021/10/31 07:25:47;;;;;;;19.90;13.77;;;10.70;96.20;;;;;;5034574;28;20029;-73
2021/10/31 07:28:13;;;;;;;16.52;11.38;;;10.80;96.20;;;;;;5016583;28;20034;-73
2021/10/31 07:30:41;;;;;;;20.40;15.32;;;11.00;96.30;;;;;;5017197;28;20029;-74
2021/10/31 07:33:06;;;;;;;18.98;14.73;;;11.20;96.10;;;;;;5044164;28;20021;-73
2021/10/31 07:35:32;;;;;;;16.65;11.45;;;11.50;96.00;;;;;;5043552;28;20511;-72
2021/10/31 07:37:59;;;;;;;17.65;12.73;;;11.90;95.40;;;;;;5049033;28;20033;-72
2021/10/31 07:40:26;;;;;;;14.32;10.13;;;12.20;94.60;;;;;;5038182;28;20025;-72
2021/10/31 07:42:54;;;;;;;16.65;10.68;;;12.40;93.70;;;;;;5033150;28;20060;-73
2021/10/31 07:45:20;;;;;;;15.35;10.18;;;12.60;93.30;;;;;;5033411;28;20029;-73
2021/10/31 07:47:46;;;;;;;12.65;8.63;;;12.60;93.00;;;;;;5034948;28;20029;-73
2021/10/31 07:50:11;;;;;;;16.70;10.10;;;12.50;93.00;;;;;;5035607;28;20367;-73
2021/10/31 07:52:44;;;;;;;14.00;9.48;;;12.40;93.00;;;;;;5033823;28;20100;-73
2021/10/31 07:55:14;;;;;;;13.40;10.15;;;12.30;93.20;;;;;;5033188;28;20049;-73
2021/10/31 07:57:40;;;;;;;14.85;11.02;;;12.20;93.30;;;;;;5033280;28;20034;-72
2021/10/31 08:00:07;;;;;;;8.75;6.75;;;12.10;93.40;;;;;;5014954;28;20041;-73
2021/10/31 08:02:32;;;;;;;14.82;10.43;;;12.10;93.50;;;;;;5033235;28;20022;-73
2021/10/31 08:05:04;;;;;;;15.38;10.57;;;12.00;93.60;;;;;;5087992;27;1244166;-72
2021/10/31 08:07:30;;;;;;;15.32;10.82;;;11.90;93.90;;;;;;5091883;28;20034;-73
2021/10/31 08:09:58;;;;;;;12.68;8.45;;;11.90;94.10;;;;;;5110127;28;20381;-72
2021/10/31 08:12:28;;;;;;;13.77;11.63;;;11.90;94.00;;;;;;5109918;28;20027;-74
2021/10/31 08:14:54;;;;;;;13.83;8.87;;;11.90;94.10;;;;;;5110122;28;20023;-73
2021/10/31 08:17:20;;;;;;;12.10;10.10;;;12.00;94.20;;;;;;5109966;28;20023;-73
2021/10/31 08:19:46;;;;;;;10.32;7.85;;;12.10;94.40;;;;;;5110265;28;20020;-73
2021/10/31 08:22:11;;;;;;;12.20;8.80;;;12.70;93.50;;;;;;5110074;28;20106;-73
2021/10/31 08:24:37;;;;;;;11.50;8.98;;;13.40;91.80;;;;;;5109502;28;20035;-72
2021/10/31 08:27:03;;;;;;;10.18;7.25;;;13.70;91.00;;;;;;5109850;28;20441;-72
2021/10/31 08:29:29;;;;;;;11.93;8.13;;;13.90;90.30;;;;;;5110289;28;20020;-73
2021/10/31 08:31:55;;;;;;;11.75;8.05;;;13.70;90.10;;;;;;5109860;28;20024;-73
2021/10/31 08:34:22;;;;;;;11.80;7.72;;;13.60;90.70;;;;;;5109610;28;20115;-73
2021/10/31 08:36:48;;;;;;;9.90;6.45;;;13.50;90.90;;;;;;5109624;28;20529;-72
2021/10/31 08:39:15;;;;;;;8.82;6.38;;;13.50;90.80;;;;;;5109604;28;20428;-72
2021/10/31 08:41:41;;;;;;;10.55;7.03;;;13.60;91.00;;;;;;5091526;28;20049;-74
2021/10/31 08:44:07;;;;;;;8.38;5.70;;;13.80;90.60;;;;;;5097704;28;20019;-73
2021/10/31 08:46:34;;;;;;;12.20;7.68;;;14.10;90.10;;;;;;5122448;28;20098;-74
2021/10/31 08:49:00;;;;;;;9.18;5.60;;;14.60;88.90;;;;;;5113440;28;20017;-74
2021/10/31 08:51:26;;;;;;;9.25;6.25;;;15.00;86.90;;;;;;5101450;28;20025;-73
2021/10/31 08:53:53;;;;;;;8.00;6.07;;;15.20;85.80;;;;;;5074037;28;20362;-72
2021/10/31 08:56:20;;;;;;;10.65;7.90;;;15.10;85.40;;;;;;5089711;28;20103;-73
2021/10/31 08:58:46;;;;;;;9.82;7.05;;;15.00;86.30;;;;;;5090700;28;20052;-74
2021/10/31 09:01:12;;;;;;;8.95;4.78;;;15.00;86.30;;;;;;5070704;28;20118;-72
2021/10/31 09:03:38;;;;;;;11.40;6.88;;;15.20;85.30;;;;;;5088807;28;20060;-73
2021/10/31 09:06:05;;;;;;;8.15;5.90;;;15.40;83.90;;;;;;5088386;28;20035;-73
2021/10/31 09:08:30;;;;;;;7.82;5.28;;;15.60;83.70;;;;;;5088504;28;20028;-73
2021/10/31 09:10:56;;;;;;;8.70;5.70;;;15.80;83.30;;;;;;5088460;28;20035;-73
2021/10/31 09:13:22;;;;;;;10.57;6.07;;;16.00;82.70;;;;;;5088693;28;20469;-73
2021/10/31 09:15:49;;;;;;;8.82;5.03;;;16.10;81.30;;;;;;5079432;28;20107;-74
2021/10/31 09:18:15;;;;;;;8.02;4.82;;;16.20;80.60;;;;;;5060292;28;20464;-72
2021/10/31 09:20:41;;;;;;;8.00;4.88;;;16.20;81.00;;;;;;5059160;28;20044;-73
2021/10/31 09:23:07;;;;;;;7.03;4.53;;;16.30;80.20;;;;;;5093812;28;20076;-72
2021/10/31 09:25:34;;;;;;;9.15;5.25;;;16.40;79.90;;;;;;5082365;28;20024;-73
2021/10/31 09:28:01;;;;;;;7.65;5.00;;;16.60;79.30;;;;;;5072804;28;20388;-74
2021/10/31 09:30:29;;;;;;;6.25;3.50;;;16.70;78.80;;;;;;5057242;28;20487;-73
2021/10/31 09:32:55;;;;;;;6.95;3.40;;;16.90;79.80;;;;;;5075161;28;20028;-74
2021/10/31 09:35:25;;;;;;;8.35;4.28;;;16.80;79.20;;;;;;5057095;28;20021;-73
2021/10/31 09:38:01;;;;;;;7.25;4.07;;;16.70;77.40;;;;;;5057571;28;20480;-74
2021/10/31 09:40:27;;;;;;;7.57;3.92;;;16.60;78.00;;;;;;5075657;28;20056;-71
2021/10/31 09:42:54;;;;;;;6.28;3.83;;;16.50;79.70;;;;;;5075392;28;20216;-73
2021/10/31 09:45:22;;;;;;;6.75;4.40;;;16.50;79.80;;;;;;5074865;28;20024;-73
2021/10/31 09:47:59;;;;;;;7.13;4.07;;;16.40;79.70;;;;;;5057152;28;20393;-74
2021/10/31 09:50:27;;;;;;;8.55;3.60;;;16.60;78.60;;;;;;5075232;28;20024;-73
2021/10/31 09:52:53;;;;;;;7.78;3.13;;;16.70;78.20;;;;;;5075354;28;20031;-72
2021/10/31 09:55:19;;;;;;;6.90;3.97;;;16.80;77.70;;;;;;5075291;28;20554;-73
2021/10/31 09:57:45;;;;;;;6.45;3.83;;;;;;;;;;5075530;28;20025;-73
2021/10/31 10:00:12;;;;;;;4.90;2.97;;;17.60;76.90;;;;;;5076029;28;20017;-73
2021/10/31 10:05:25;;;;;;;6.28;3.88;;;18.10;73.10;;;;;;5077015;28;20104;-73
2021/10/31 10:08:26;;;;;;;7.63;4.13;;;18.00;74.00;;;;;;5075005;28;20028;-74
2021/10/31 10:10:54;;;;;;;7.43;3.78;;;18.10;75.60;;;;;;4972851;28;20065;-75
2021/10/31 10:13:22;;;;;;;5.30;3.03;;;18.10;73.80;;;;;;5036465;28;20074;-74
2021/10/31 10:15:50;;;;;;;6.35;4.07;;;18.20;75.40;;;;;;5074286;28;20603;-74
2021/10/31 10:18:36;;;;;;;6.25;3.92;;;18.10;72.90;;;;;;5073943;28;20020;-73
2021/10/31 10:21:22;;;;;;;5.65;3.05;;;18.00;73.10;;;;;;5073599;28;20102;-74
2021/10/31 10:24:05;;;;;;;5.63;3.42;;;17.90;74.30;;;;;;5056117;28;20492;-75
2021/10/31 10:26:35;;;;;;;5.43;3.35;;;17.80;73.60;;;;;;5073254;28;20036;-75
2021/10/31 10:29:20;;;;;;;6.63;3.25;;;18.00;76.30;;;;;;5074584;28;20380;-74
2021/10/31 10:31:54;;;;;;;5.75;3.55;;;18.20;73.10;;;;;;5073938;28;20055;-74
2021/10/31 10:34:35;;;;;;;7.15;3.05;;;18.60;71.20;;;;;;5073583;28;20452;-75
2021/10/31 10:37:07;;;;;;;5.28;2.97;;;18.80;70.80;;;;;;5056468;28;20021;-75
2021/10/31 10:39:34;;;;;;;4.25;2.65;;;18.80;74.30;;;;;;5056020;28;20028;-73
2021/10/31 10:42:00;;;;;;;4.72;2.40;;;18.50;72.50;;;;;;5055678;28;20350;-74
2021/10/31 10:44:25;;;;;;;4.57;2.58;;;18.40;73.70;;;;;;5055348;28;20095;-75
2021/10/31 10:46:56;;;;;;;4.72;2.60;;;18.20;73.30;;;;;;5073584;28;20075;-74
2021/10/31 10:49:23;;;;;;;4.53;2.22;;;18.00;76.80;;;;;;5073400;28;20020;-73
2021/10/31 10:52:06;;;;;;;5.55;2.08;;;17.80;79.00;;;;;;5055257;28;20021;-74
2021/10/31 10:54:34;;;;;;;5.05;2.58;;;17.80;78.70;;;;;;5073133;28;20021;-73
2021/10/31 10:57:06;;;;;;;4.07;2.03;;;17.90;77.40;;;;;;5073119;28;20059;-74
2021/10/31 10:59:34;;;;;;;5.43;2.42;;;18.20;77.10;;;;;;5073435;28;20024;-74
2021/10/31 11:02:09;;;;;;;3.03;1.67;;;18.30;71.40;;;;;;5072973;28;20433;-73
2021/10/31 11:04:36;;;;;;;4.38;2.15;;;18.20;79.10;;;;;;5055237;28;20090;-74
2021/10/31 11:07:03;;;;;;;6.15;2.20;;;18.20;75.10;;;;;;5055479;28;20017;-74
2021/10/31 11:09:46;;;;;;;3.85;1.80;;;18.50;71.60;;;;;;5055440;28;20025;-74
2021/10/31 11:12:29;;;;;;;6.93;1.45;;;18.90;72.90;;;;;;5075533;28;20032;-75
2021/10/31 11:15:03;;;;;;;5.18;2.15;;;19.10;77.20;;;;;;5085434;28;20017;-74
2021/10/31 11:17:29;;;;;;;4.03;1.67;;;18.70;74.60;;;;;;5085205;28;20035;-75
2021/10/31 11:19:55;;;;;;;5.20;1.80;;;18.70;77.10;;;;;;5078378;28;20028;-73
2021/10/31 11:22:23;;;;;;;2.90;1.63;;;18.50;72.80;;;;;;5073130;28;20461;-75
2021/10/31 11:24:50;;;;;;;5.22;1.83;;;18.50;75.80;;;;;;5055047;28;20024;-74
2021/10/31 11:27:19;;;;;;;3.28;1.50;;;18.70;76.50;;;;;;5055229;28;20444;-73
2021/10/31 11:29:46;;;;;;;6.82;1.88;;;19.20;77.20;;;;;;5057245;28;20052;-74
2021/10/31 11:32:14;;;;;;;3.90;1.90;;;19.30;71.90;;;;;;5055826;28;20112;-75
2021/10/31 11:34:45;;;;;;;5.75;1.60;;;19.10;67.70;;;;;;5073129;28;20031;-74
2021/10/31 11:37:13;;;;;;;5.95;1.77;;;18.60;76.80;;;;;;5072293;28;20326;-74
2021/10/31 11:39:39;;;;;;;5.63;1.60;;;18.10;73.20;;;;;;5072235;28;20016;-73
2021/10/31 11:42:07;;;;;;;4.57;1.85;;;17.80;75.90;;;;;;5073223;28;20029;-74
2021/10/31 11:44:52;;;;;;;4.15;1.73;;;17.60;80.10;;;;;;5073846;28;20469;-74
2021/10/31 11:47:21;;;;;;;4.28;1.92;;;17.40;81.30;;;;;;5074957;28;20032;-74
2021/10/31 11:50:05;;;;;;;3.15;1.90;;;17.20;77.50;;;;;;5072443;28;20450;-74
2021/10/31 11:52:55;;;;;;;4.13;1.90;;;17.00;80.90;;;;;;5054224;28;20013;-73
2021/10/31 11:55:29;;;;;;;3.70;1.73;;;16.80;79.80;;;;;;5072150;28;20035;-73
2021/10/31 11:58:07;;;;;;;4.47;2.05;;;16.60;80.20;;;;;;5054254;28;20021;-75
2021/10/31 12:00:33;;;;;;;5.88;1.90;;;16.40;79.40;;;;;;5072144;28;20056;-74
2021/10/31 12:03:03;;;;;;;4.45;1.77;;;16.30;83.40;;;;;;5071875;28;20082;-75
2021/10/31 12:05:40;;;;;;;7.78;1.90;;;16.20;85.00;;;;;;5037546;28;20032;-74
2021/10/31 12:08:08;;;;;;;5.20;2.20;;;16.20;86.70;;;;;;5054210;28;20082;-75
2021/10/31 12:10:50;;;;;;;4.07;1.88;;;16.10;82.70;;;;;;5054006;28;20032;-77
2021/10/31 12:13:20;;;;;;;4.55;2.40;;;16.00;85.60;;;;;;5054385;28;20032;-74
2021/10/31 12:16:06;;;;;;;5.25;2.00;;;15.90;83.90;;;;;;5073765;28;20103;-73
2021/10/31 12:18:46;;;;;;;4.18;1.77;;;15.90;84.40;;;;;;5081910;28;20449;-74
2021/10/31 12:21:22;;;;;;;4.68;2.10;;;15.90;89.40;;;;;;5081913;28;20048;-75
2021/10/31 12:24:09;;;;;;;4.93;2.10;;;15.90;89.50;;;;;;5081318;28;20035;-74
2021/10/31 12:26:40;;;;;;;4.55;1.77;;;15.90;86.60;;;;;;5063883;28;20028;-73
2021/10/31 12:29:17;;;;;;;3.22;1.70;;;15.90;87.60;;;;;;5082748;28;20059;-75
2021/10/31 12:32:02;;;;;;;4.68;2.38;;;15.90;87.90;;;;;;5066694;28;20032;-73
2021/10/31 12:34:40;;;;;;;5.45;2.45;;;15.90;88.00;;;;;;5092154;28;20028;-74
2021/10/31 12:37:21;;;;;;;4.78;2.30;;;15.90;87.00;;;;;;5092340;28;20028;-75
2021/10/31 12:40:08;;;;;;;4.85;2.03;;;15.90;85.30;;;;;;5075180;28;20030;-74
2021/10/31 12:42:46;;;;;;;3.78;1.42;;;15.90;84.50;;;;;;5098952;28;20058;-73
2021/10/31 12:45:16;;;;;;;3.88;1.63;;;15.90;86.50;;;;;;5086459;28;20124;-74
2021/10/31 12:47:44;;;;;;;3.58;1.73;;;15.90;88.70;;;;;;5088667;28;20443;-74